createdAt,value
2022-09-29T00:00:22.837Z,0.20
2022-09-29T00:05:24.877Z,0.20
2022-09-29T00:10:26.939Z,0.57
2022-09-29T00:15:28.811Z,0.38
2022-09-29T00:20:32.653Z,0.22
2022-09-29T00:25:34.843Z,0.30
2022-09-29T00:30:37.105Z,0.60
2022-09-29T00:35:38.869Z,0.32
2022-09-29T00:40:40.834Z,0.20
2022-09-29T00:45:42.830Z,0.40
2022-09-29T00:50:51.526Z,0.30
2022-09-29T00:56:02.748Z,0.20
2022-09-29T01:01:05.831Z,0.43
2022-09-29T01:06:15.333Z,0.30
2022-09-29T01:11:17.153Z,0.20
2022-09-29T01:16:19.394Z,0.20
2022-09-29T01:21:40.104Z,0.30
2022-09-29T01:26:56.898Z,0.25
2022-09-29T01:31:58.809Z,0.20
2022-09-29T01:37:00.678Z,0.32
2022-09-29T01:42:27.753Z,0.30
2022-09-29T01:47:51.829Z,0.30
2022-09-29T01:53:00.268Z,0.45
2022-09-29T01:58:12.863Z,0.20
2022-09-29T02:03:24.638Z,0.20
2022-09-29T02:08:33.244Z,0.20
2022-09-29T02:13:43.727Z,0.30
2022-09-29T02:18:59.745Z,0.32
2022-09-29T02:24:01.697Z,0.30
2022-09-29T02:29:06.974Z,0.30
2022-09-29T02:34:12.815Z,0.30
2022-09-29T02:39:23.949Z,0.30
2022-09-29T02:44:43.833Z,0.50
2022-09-29T02:50:13.944Z,0.30
2022-09-29T02:55:25.866Z,0.47
2022-09-29T03:00:28.292Z,0.20
2022-09-29T03:05:30.112Z,0.25
2022-09-29T03:10:32.069Z,0.30
2022-09-29T03:15:33.866Z,0.20
2022-09-29T03:20:35.909Z,0.43
2022-09-29T03:25:37.785Z,0.38
2022-09-29T03:30:39.800Z,0.40
2022-09-29T03:35:44.471Z,0.32
2022-09-29T03:40:46.692Z,0.20
2022-09-29T03:45:53.846Z,0.30
2022-09-29T03:50:55.889Z,0.38
2022-09-29T03:55:58.040Z,0.65
2022-09-29T04:01:00.115Z,0.30
2022-09-29T04:06:02.220Z,0.40
2022-09-29T04:11:04.851Z,0.25
2022-09-29T04:16:06.912Z,0.25
2022-09-29T04:21:09.741Z,0.40
2022-09-29T04:26:11.592Z,0.40
2022-09-29T04:31:13.453Z,0.28
2022-09-29T04:36:15.531Z,0.47
2022-09-29T04:41:17.858Z,0.22
2022-09-29T04:46:19.738Z,0.40
2022-09-29T04:51:21.684Z,0.43
2022-09-29T04:56:23.546Z,0.35
2022-09-29T05:01:26.120Z,0.32
2022-09-29T05:06:28.780Z,0.50
2022-09-29T05:11:30.927Z,0.50
2022-09-29T05:16:33.065Z,0.63
2022-09-29T05:21:34.959Z,0.30
2022-09-29T05:26:37.169Z,0.30
2022-09-29T05:31:39.361Z,0.35
2022-09-29T05:36:41.342Z,0.20
2022-09-29T05:41:43.545Z,0.55
2022-09-29T05:46:45.315Z,0.50
2022-09-29T05:51:47.401Z,0.20
2022-09-29T05:56:49.422Z,0.40
2022-09-29T06:01:51.728Z,0.30
2022-09-29T06:06:55.646Z,0.40
2022-09-29T06:11:58.984Z,0.20
2022-09-29T06:17:00.710Z,0.50
2022-09-29T06:22:02.548Z,0.40
2022-09-29T06:27:04.447Z,0.30
2022-09-29T06:32:06.367Z,0.40
2022-09-29T06:37:28.171Z,1.15
2022-09-29T06:42:30.108Z,0.60
2022-09-29T06:47:32.036Z,1.38
2022-09-29T06:52:33.998Z,0.70
2022-09-29T06:57:37.046Z,0.50
2022-09-29T07:02:38.874Z,0.60
2022-09-29T07:07:40.957Z,1.10
2022-09-29T07:12:45.444Z,1.15
2022-09-29T07:17:51.891Z,0.95
2022-09-29T07:22:53.919Z,1.02
2022-09-29T07:27:56.090Z,1.98
2022-09-29T07:33:02.372Z,1.00
2022-09-29T07:38:04.493Z,0.35
2022-09-29T07:43:07.744Z,0.85
2022-09-29T07:48:09.767Z,0.75
2022-09-29T07:53:12.654Z,0.60
2022-09-29T07:58:14.528Z,0.43
2022-09-29T08:03:16.449Z,0.70
2022-09-29T08:08:18.212Z,0.90
2022-09-29T08:13:20.169Z,0.75
2022-09-29T08:18:22.123Z,0.60
2022-09-29T08:23:24.317Z,0.50
2022-09-29T08:28:31.701Z,0.60
2022-09-29T08:33:35.255Z,0.47
2022-09-29T08:38:42.977Z,0.50
2022-09-29T08:43:46.877Z,0.75
2022-09-29T08:48:58.021Z,0.52
2022-09-29T08:54:07.387Z,1.10
2022-09-29T08:59:11.650Z,0.90
2022-09-29T09:04:31.779Z,0.55
2022-09-29T09:10:01.995Z,0.55
2022-09-29T09:15:39.917Z,0.60
2022-09-29T09:21:07.506Z,0.55
2022-09-29T09:26:10.911Z,0.40
2022-09-29T09:31:40.810Z,0.63
2022-09-29T09:36:51.465Z,0.68
2022-09-29T09:41:58.396Z,0.77
2022-09-29T09:47:10.406Z,0.45
2022-09-29T09:52:26.376Z,0.40
2022-09-29T09:58:09.508Z,0.50
2022-09-29T10:03:12.348Z,0.22
2022-09-29T10:08:40.134Z,0.40
2022-09-29T10:13:42.715Z,0.90
2022-09-29T10:18:52.907Z,0.70
2022-09-29T10:24:00.023Z,0.43
2022-09-29T10:29:18.478Z,0.55
2022-09-29T10:34:25.311Z,0.40
2022-09-29T10:39:34.898Z,0.50
2022-09-29T10:44:40.162Z,0.43
2022-09-29T10:49:41.918Z,0.70
2022-09-29T10:54:58.019Z,0.30
2022-09-29T11:00:00.791Z,0.50
2022-09-29T11:05:16.128Z,0.50
2022-09-29T11:10:39.160Z,0.40
2022-09-29T11:15:41.874Z,0.40
2022-09-29T11:20:46.128Z,0.22
2022-09-29T11:26:02.563Z,0.28
2022-09-29T11:31:16.337Z,0.60
2022-09-29T11:36:42.634Z,0.52
2022-09-29T11:42:23.626Z,0.43
2022-09-29T11:47:50.306Z,0.43
2022-09-29T11:53:07.198Z,0.30
2022-09-29T11:58:23.793Z,0.40
2022-09-29T12:03:37.202Z,0.40
2022-09-29T12:08:54.238Z,0.80
2022-09-29T12:14:15.718Z,0.30
2022-09-29T12:19:21.657Z,0.30
2022-09-29T12:24:51.928Z,0.40
2022-09-29T12:30:13.983Z,0.30
2022-09-29T12:35:21.741Z,0.40
2022-09-29T12:40:37.901Z,0.35
2022-09-29T12:46:02.409Z,0.30
2022-09-29T12:51:09.985Z,0.50
2022-09-29T12:56:25.668Z,0.30
2022-09-29T13:01:30.459Z,0.40
2022-09-29T13:06:50.679Z,0.40
2022-09-29T13:12:21.588Z,0.35
2022-09-29T13:17:52.536Z,0.28
2022-09-29T13:23:11.888Z,0.22
2022-09-29T13:28:54.759Z,0.20
2022-09-29T13:33:59.858Z,0.38
2022-09-29T13:39:05.660Z,0.22
2022-09-29T13:44:16.836Z,0.30
2022-09-29T13:49:22.333Z,0.22
2022-09-29T13:54:26.395Z,0.20
2022-09-29T13:59:29.318Z,0.50
2022-09-29T14:04:37.686Z,0.10
2022-09-29T14:09:47.985Z,0.20
2022-09-29T14:15:00.571Z,0.57
2022-09-29T14:20:20.892Z,0.20
2022-09-29T14:25:42.868Z,0.30
2022-09-29T14:30:51.425Z,0.47
2022-09-29T14:35:59.262Z,0.40
2022-09-29T14:41:06.584Z,0.20
2022-09-29T14:46:50.180Z,0.20
2022-09-29T14:52:17.805Z,0.30
2022-09-29T14:57:47.003Z,0.30
2022-09-29T15:02:59.615Z,0.30
2022-09-29T15:08:30.298Z,0.20
2022-09-29T15:13:32.094Z,0.10
2022-09-29T15:18:44.096Z,0.20
2022-09-29T15:23:58.983Z,0.20
2022-09-29T15:29:01.394Z,0.30
2022-09-29T15:34:07.116Z,0.30
2022-09-29T15:39:32.455Z,0.20
2022-09-29T15:44:34.490Z,0.80
2022-09-29T15:49:40.053Z,0.30
2022-09-29T15:54:45.294Z,0.77
2022-09-29T15:59:50.807Z,0.60
2022-09-29T16:04:59.184Z,0.55
2022-09-29T16:10:05.504Z,0.50
2022-09-29T16:15:07.916Z,0.77
2022-09-29T16:20:17.605Z,0.60
2022-09-29T16:25:24.885Z,0.80
2022-09-29T16:30:39.125Z,0.63
2022-09-29T16:36:07.293Z,0.90
2022-09-29T16:41:09.970Z,0.57
2022-09-29T16:46:17.599Z,0.80
2022-09-29T16:51:39.366Z,0.40
2022-09-29T16:56:41.842Z,0.75
2022-09-29T17:01:44.825Z,0.90
2022-09-29T17:06:48.498Z,0.60
2022-09-29T17:11:50.373Z,0.40
2022-09-29T17:16:53.129Z,0.40
2022-09-29T17:21:55.819Z,0.57
2022-09-29T17:27:16.418Z,0.22
2022-09-29T17:32:20.041Z,0.45
2022-09-29T17:37:21.910Z,1.02
2022-09-29T17:42:26.198Z,1.00
2022-09-29T17:47:30.303Z,0.82
2022-09-29T17:52:34.290Z,1.00
2022-09-29T17:57:36.122Z,1.05
2022-09-29T18:02:37.937Z,1.20
2022-09-29T18:07:40.117Z,1.02
2022-09-29T18:12:42.079Z,0.52
2022-09-29T18:17:45.365Z,0.70
2022-09-29T18:22:48.420Z,0.93
2022-09-29T18:27:50.222Z,0.55
2022-09-29T18:32:55.706Z,0.90
2022-09-29T18:37:58.763Z,0.73
2022-09-29T18:43:01.019Z,1.15
2022-09-29T18:48:06.165Z,0.80
2022-09-29T18:53:08.182Z,1.00
2022-09-29T18:58:14.102Z,0.77
2022-09-29T19:03:19.494Z,0.80
2022-09-29T19:08:21.621Z,0.70
2022-09-29T19:13:24.058Z,0.63
2022-09-29T19:18:27.428Z,0.70
2022-09-29T19:23:29.201Z,0.50
2022-09-29T19:28:30.941Z,0.85
2022-09-29T19:33:32.803Z,1.23
2022-09-29T19:38:35.769Z,0.57
2022-09-29T19:43:37.756Z,0.68
2022-09-29T19:48:40.295Z,0.77
2022-09-29T19:53:44.546Z,1.00
2022-09-29T19:58:51.194Z,0.70
2022-09-29T20:03:52.911Z,0.70
2022-09-29T20:08:55.248Z,0.57
2022-09-29T20:13:57.328Z,0.93
2022-09-29T20:19:00.160Z,0.65
2022-09-29T20:24:02.060Z,0.60
2022-09-29T20:29:04.527Z,0.60
2022-09-29T20:34:07.524Z,0.50
2022-09-29T20:39:11.085Z,1.00
2022-09-29T20:44:12.849Z,1.10
2022-09-29T20:49:14.715Z,1.45
2022-09-29T20:54:16.570Z,1.52
2022-09-29T20:59:20.720Z,1.05
2022-09-29T21:04:22.719Z,1.25
2022-09-29T21:09:24.955Z,0.80
2022-09-29T21:14:28.146Z,0.60
2022-09-29T21:19:29.994Z,1.13
2022-09-29T21:24:32.324Z,0.93
2022-09-29T21:29:34.282Z,0.70
2022-09-29T21:34:36.156Z,0.65
2022-09-29T21:39:38.139Z,0.73
2022-09-29T21:44:40.216Z,0.80
2022-09-29T21:49:43.057Z,0.77
2022-09-29T21:54:45.249Z,0.90
2022-09-29T21:59:47.098Z,1.05
2022-09-29T22:04:48.821Z,0.85
2022-09-29T22:09:50.667Z,0.63
2022-09-29T22:14:52.454Z,1.00
2022-09-29T22:19:54.466Z,0.90
2022-09-29T22:24:56.759Z,1.10
2022-09-29T22:29:58.881Z,0.75
2022-09-29T22:35:00.660Z,0.65
2022-09-29T22:40:04.231Z,0.70
2022-09-29T22:45:06.476Z,0.77
2022-09-29T22:50:09.038Z,0.73
2022-09-29T22:55:10.932Z,0.68
2022-09-29T23:00:12.847Z,1.17
2022-09-29T23:05:15.393Z,0.60
2022-09-29T23:10:17.374Z,0.68
2022-09-29T23:15:19.338Z,0.85
2022-09-29T23:20:21.329Z,0.70
2022-09-29T23:25:24.073Z,0.80
2022-09-29T23:30:26.245Z,1.23
2022-09-29T23:35:28.304Z,0.68
2022-09-29T23:40:30.104Z,0.60
2022-09-29T23:45:31.943Z,0.70
2022-09-29T23:50:34.004Z,0.90
2022-09-29T23:55:35.910Z,1.00
